sensor_id;sensor_type;location;lat;lon;timestamp;temperature;humidity
64874;HTU21D;51367;45.204;38.576;2023-05-10T00:00:27;9.83;89.41
64874;HTU21D;51367;45.204;38.576;2023-05-10T00:02:53;9.82;89.39
64874;HTU21D;51367;45.204;38.576;2023-05-10T00:05:19;9.83;89.38
64874;HTU21D;51367;45.204;38.576;2023-05-10T00:07:45;9.85;89.37
64874;HTU21D;51367;45.204;38.576;2023-05-10T00:10:11;9.86;89.31
64874;HTU21D;51367;45.204;38.576;2023-05-10T00:12:37;9.86;89.25
64874;HTU21D;51367;45.204;38.576;2023-05-10T00:15:03;9.84;89.25
64874;HTU21D;51367;45.204;38.576;2023-05-10T00:17:29;9.82;89.24
64874;HTU21D;51367;45.204;38.576;2023-05-10T00:19:55;9.81;89.22
64874;HTU21D;51367;45.204;38.576;2023-05-10T00:22:21;9.79;89.28
64874;HTU21D;51367;45.204;38.576;2023-05-10T00:24:47;9.78;89.29
64874;HTU21D;51367;45.204;38.576;2023-05-10T00:27:13;9.77;89.31
64874;HTU21D;51367;45.204;38.576;2023-05-10T00:29:39;9.77;89.33
64874;HTU21D;51367;45.204;38.576;2023-05-10T00:32:05;9.77;89.34
64874;HTU21D;51367;45.204;38.576;2023-05-10T00:34:32;9.78;89.34
64874;HTU21D;51367;45.204;38.576;2023-05-10T00:36:57;9.78;89.33
64874;HTU21D;51367;45.204;38.576;2023-05-10T00:39:23;9.80;89.30
64874;HTU21D;51367;45.204;38.576;2023-05-10T00:41:49;9.79;89.27
64874;HTU21D;51367;45.204;38.576;2023-05-10T00:44:16;9.80;89.25
64874;HTU21D;51367;45.204;38.576;2023-05-10T00:46:44;9.79;89.25
64874;HTU21D;51367;45.204;38.576;2023-05-10T00:49:11;9.80;89.24
64874;HTU21D;51367;45.204;38.576;2023-05-10T00:51:37;9.79;89.22
64874;HTU21D;51367;45.204;38.576;2023-05-10T00:54:03;9.78;89.18
64874;HTU21D;51367;45.204;38.576;2023-05-10T00:56:29;9.77;89.22
64874;HTU21D;51367;45.204;38.576;2023-05-10T00:58:55;9.77;89.23
64874;HTU21D;51367;45.204;38.576;2023-05-10T01:01:22;9.77;89.22
64874;HTU21D;51367;45.204;38.576;2023-05-10T01:03:48;9.77;89.24
64874;HTU21D;51367;45.204;38.576;2023-05-10T01:06:15;9.77;89.23
64874;HTU21D;51367;45.204;38.576;2023-05-10T01:08:40;9.78;89.22
64874;HTU21D;51367;45.204;38.576;2023-05-10T01:11:06;9.78;89.24
64874;HTU21D;51367;45.204;38.576;2023-05-10T01:13:39;9.78;89.21
64874;HTU21D;51367;45.204;38.576;2023-05-10T01:16:06;9.78;89.20
64874;HTU21D;51367;45.204;38.576;2023-05-10T01:18:36;9.77;89.13
64874;HTU21D;51367;45.204;38.576;2023-05-10T01:46:28;9.66;89.20
64874;HTU21D;51367;45.204;38.576;2023-05-10T01:48:58;9.63;89.20
64874;HTU21D;51367;45.204;38.576;2023-05-10T01:51:31;9.65;89.19
64874;HTU21D;51367;45.204;38.576;2023-05-10T01:54:01;9.66;89.20
64874;HTU21D;51367;45.204;38.576;2023-05-10T01:56:30;9.65;89.19
64874;HTU21D;51367;45.204;38.576;2023-05-10T01:58:57;9.67;89.17
64874;HTU21D;51367;45.204;38.576;2023-05-10T02:01:25;9.68;89.15
64874;HTU21D;51367;45.204;38.576;2023-05-10T02:03:53;9.67;89.14
64874;HTU21D;51367;45.204;38.576;2023-05-10T02:06:22;9.66;89.14
64874;HTU21D;51367;45.204;38.576;2023-05-10T02:08:52;9.64;89.14
64874;HTU21D;51367;45.204;38.576;2023-05-10T02:11:19;9.64;89.18
64874;HTU21D;51367;45.204;38.576;2023-05-10T02:13:47;9.64;89.16
64874;HTU21D;51367;45.204;38.576;2023-05-10T02:16:16;9.65;89.17
64874;HTU21D;51367;45.204;38.576;2023-05-10T02:18:43;9.64;89.16
64874;HTU21D;51367;45.204;38.576;2023-05-10T02:21:10;9.63;89.15
64874;HTU21D;51367;45.204;38.576;2023-05-10T02:23:38;9.64;89.18
64874;HTU21D;51367;45.204;38.576;2023-05-10T02:26:05;9.64;89.15
64874;HTU21D;51367;45.204;38.576;2023-05-10T02:28:32;9.63;89.20
64874;HTU21D;51367;45.204;38.576;2023-05-10T02:30:59;9.59;89.11
64874;HTU21D;51367;45.204;38.576;2023-05-10T02:33:25;9.56;89.15
64874;HTU21D;51367;45.204;38.576;2023-05-10T02:35:52;9.51;89.23
64874;HTU21D;51367;45.204;38.576;2023-05-10T02:38:20;9.52;89.28
64874;HTU21D;51367;45.204;38.576;2023-05-10T02:40:47;9.51;89.29
64874;HTU21D;51367;45.204;38.576;2023-05-10T02:43:15;9.52;89.28
64874;HTU21D;51367;45.204;38.576;2023-05-10T02:45:43;9.52;89.30
64874;HTU21D;51367;45.204;38.576;2023-05-10T02:48:12;9.50;89.26
64874;HTU21D;51367;45.204;38.576;2023-05-10T02:50:41;9.52;89.28
64874;HTU21D;51367;45.204;38.576;2023-05-10T02:53:15;9.52;89.27
64874;HTU21D;51367;45.204;38.576;2023-05-10T02:55:50;9.51;89.22
64874;HTU21D;51367;45.204;38.576;2023-05-10T02:58:16;9.50;89.25
64874;HTU21D;51367;45.204;38.576;2023-05-10T03:00:45;9.50;89.25
64874;HTU21D;51367;45.204;38.576;2023-05-10T03:03:12;9.50;89.23
64874;HTU21D;51367;45.204;38.576;2023-05-10T03:05:38;9.52;89.25
64874;HTU21D;51367;45.204;38.576;2023-05-10T03:08:04;9.51;89.25
64874;HTU21D;51367;45.204;38.576;2023-05-10T03:10:31;9.52;89.25
64874;HTU21D;51367;45.204;38.576;2023-05-10T03:13:29;9.52;89.24
64874;HTU21D;51367;45.204;38.576;2023-05-10T03:18:44;9.52;89.20
64874;HTU21D;51367;45.204;38.576;2023-05-10T03:21:13;9.51;89.23
64874;HTU21D;51367;45.204;38.576;2023-05-10T03:23:51;9.54;89.24
64874;HTU21D;51367;45.204;38.576;2023-05-10T03:26:25;9.52;89.20
64874;HTU21D;51367;45.204;38.576;2023-05-10T03:28:58;9.53;89.28
64874;HTU21D;51367;45.204;38.576;2023-05-10T03:31:25;9.55;89.25
64874;HTU21D;51367;45.204;38.576;2023-05-10T03:33:52;9.55;89.21
64874;HTU21D;51367;45.204;38.576;2023-05-10T03:36:23;9.54;89.22
64874;HTU21D;51367;45.204;38.576;2023-05-10T03:38:49;9.51;89.23
64874;HTU21D;51367;45.204;38.576;2023-05-10T03:41:15;9.52;89.26
64874;HTU21D;51367;45.204;38.576;2023-05-10T03:43:41;9.52;89.26
64874;HTU21D;51367;45.204;38.576;2023-05-10T03:46:07;9.54;89.25
64874;HTU21D;51367;45.204;38.576;2023-05-10T03:48:33;9.56;89.21
64874;HTU21D;51367;45.204;38.576;2023-05-10T03:50:59;9.50;89.05
64874;HTU21D;51367;45.204;38.576;2023-05-10T03:53:25;9.45;89.11
64874;HTU21D;51367;45.204;38.576;2023-05-10T03:55:52;9.39;89.18
64874;HTU21D;51367;45.204;38.576;2023-05-10T03:58:18;9.35;89.24
64874;HTU21D;51367;45.204;38.576;2023-05-10T04:00:44;9.30;89.34
64874;HTU21D;51367;45.204;38.576;2023-05-10T04:03:12;9.25;89.37
64874;HTU21D;51367;45.204;38.576;2023-05-10T04:05:38;9.24;89.52
64874;HTU21D;51367;45.204;38.576;2023-05-10T04:08:05;9.22;89.43
64874;HTU21D;51367;45.204;38.576;2023-05-10T04:10:31;9.16;89.44
64874;HTU21D;51367;45.204;38.576;2023-05-10T04:12:57;9.11;89.50
64874;HTU21D;51367;45.204;38.576;2023-05-10T04:15:23;9.09;89.54
64874;HTU21D;51367;45.204;38.576;2023-05-10T04:17:50;9.09;89.70
64874;HTU21D;51367;45.204;38.576;2023-05-10T04:20:16;9.06;89.57
64874;HTU21D;51367;45.204;38.576;2023-05-10T04:22:42;9.06;89.62
64874;HTU21D;51367;45.204;38.576;2023-05-10T04:25:08;9.06;89.63
64874;HTU21D;51367;45.204;38.576;2023-05-10T04:27:34;9.03;89.67
64874;HTU21D;51367;45.204;38.576;2023-05-10T04:30:00;9.02;89.62
64874;HTU21D;51367;45.204;38.576;2023-05-10T04:32:26;9.03;89.61
64874;HTU21D;51367;45.204;38.576;2023-05-10T04:34:52;9.03;89.61
64874;HTU21D;51367;45.204;38.576;2023-05-10T04:37:18;9.02;89.60
64874;HTU21D;51367;45.204;38.576;2023-05-10T04:39:45;9.03;89.54
64874;HTU21D;51367;45.204;38.576;2023-05-10T04:42:11;9.04;89.54
64874;HTU21D;51367;45.204;38.576;2023-05-10T04:44:37;9.06;89.54
64874;HTU21D;51367;45.204;38.576;2023-05-10T04:47:03;9.11;89.50
64874;HTU21D;51367;45.204;38.576;2023-05-10T04:49:29;9.12;89.38
64874;HTU21D;51367;45.204;38.576;2023-05-10T04:51:55;9.10;89.38
64874;HTU21D;51367;45.204;38.576;2023-05-10T04:54:21;9.11;89.41
64874;HTU21D;51367;45.204;38.576;2023-05-10T04:56:47;9.14;89.41
64874;HTU21D;51367;45.204;38.576;2023-05-10T04:59:13;9.18;89.42
64874;HTU21D;51367;45.204;38.576;2023-05-10T05:01:39;9.25;89.43
64874;HTU21D;51367;45.204;38.576;2023-05-10T05:04:05;9.31;89.42
64874;HTU21D;51367;45.204;38.576;2023-05-10T05:06:32;9.35;89.29
64874;HTU21D;51367;45.204;38.576;2023-05-10T05:08:58;9.41;89.28
64874;HTU21D;51367;45.204;38.576;2023-05-10T05:11:24;9.48;89.18
64874;HTU21D;51367;45.204;38.576;2023-05-10T05:13:51;9.51;89.05
64874;HTU21D;51367;45.204;38.576;2023-05-10T05:16:17;9.55;89.02
64874;HTU21D;51367;45.204;38.576;2023-05-10T05:18:43;9.64;89.03
64874;HTU21D;51367;45.204;38.576;2023-05-10T05:21:18;9.68;88.60
64874;HTU21D;51367;45.204;38.576;2023-05-10T05:23:45;9.68;88.63
64874;HTU21D;51367;45.204;38.576;2023-05-10T05:26:11;9.69;88.70
64874;HTU21D;51367;45.204;38.576;2023-05-10T05:28:37;9.74;88.79
64874;HTU21D;51367;45.204;38.576;2023-05-10T05:31:04;9.76;88.74
64874;HTU21D;51367;45.204;38.576;2023-05-10T05:33:31;9.78;88.78
64874;HTU21D;51367;45.204;38.576;2023-05-10T05:35:57;9.80;88.56
64874;HTU21D;51367;45.204;38.576;2023-05-10T05:38:25;9.82;88.71
64874;HTU21D;51367;45.204;38.576;2023-05-10T05:40:51;9.93;88.84
64874;HTU21D;51367;45.204;38.576;2023-05-10T05:43:17;10.03;88.70
64874;HTU21D;51367;45.204;38.576;2023-05-10T05:45:43;10.09;88.47
64874;HTU21D;51367;45.204;38.576;2023-05-10T05:48:09;10.12;88.49
64874;HTU21D;51367;45.204;38.576;2023-05-10T05:50:35;10.11;88.35
64874;HTU21D;51367;45.204;38.576;2023-05-10T05:53:00;10.11;88.37
64874;HTU21D;51367;45.204;38.576;2023-05-10T05:55:26;10.09;88.20
64874;HTU21D;51367;45.204;38.576;2023-05-10T05:57:52;10.05;88.21
64874;HTU21D;51367;45.204;38.576;2023-05-10T06:00:19;10.06;88.29
64874;HTU21D;51367;45.204;38.576;2023-05-10T06:02:45;10.05;88.12
64874;HTU21D;51367;45.204;38.576;2023-05-10T06:05:11;10.00;87.84
64874;HTU21D;51367;45.204;38.576;2023-05-10T06:07:37;9.95;88.01
64874;HTU21D;51367;45.204;38.576;2023-05-10T06:10:03;9.92;88.10
64874;HTU21D;51367;45.204;38.576;2023-05-10T06:12:29;9.92;88.21
64874;HTU21D;51367;45.204;38.576;2023-05-10T06:14:54;9.92;88.15
64874;HTU21D;51367;45.204;38.576;2023-05-10T06:17:20;9.93;88.26
64874;HTU21D;51367;45.204;38.576;2023-05-10T06:19:47;9.93;88.15
64874;HTU21D;51367;45.204;38.576;2023-05-10T06:22:13;9.95;88.23
64874;HTU21D;51367;45.204;38.576;2023-05-10T06:24:39;9.96;88.21
64874;HTU21D;51367;45.204;38.576;2023-05-10T06:27:05;9.94;88.03
64874;HTU21D;51367;45.204;38.576;2023-05-10T06:29:32;9.96;88.12
64874;HTU21D;51367;45.204;38.576;2023-05-10T06:31:58;9.96;88.07
64874;HTU21D;51367;45.204;38.576;2023-05-10T06:34:24;9.96;87.89
64874;HTU21D;51367;45.204;38.576;2023-05-10T06:36:50;9.91;87.84
64874;HTU21D;51367;45.204;38.576;2023-05-10T06:39:17;9.90;88.05
64874;HTU21D;51367;45.204;38.576;2023-05-10T06:41:43;9.88;88.00
64874;HTU21D;51367;45.204;38.576;2023-05-10T06:44:09;9.86;87.76
64874;HTU21D;51367;45.204;38.576;2023-05-10T06:46:35;9.84;87.90
64874;HTU21D;51367;45.204;38.576;2023-05-10T06:49:01;9.81;87.89
64874;HTU21D;51367;45.204;38.576;2023-05-10T06:51:27;9.79;87.84
64874;HTU21D;51367;45.204;38.576;2023-05-10T06:53:53;9.77;87.96
64874;HTU21D;51367;45.204;38.576;2023-05-10T06:56:19;9.78;87.99
64874;HTU21D;51367;45.204;38.576;2023-05-10T06:58:47;9.80;88.02
64874;HTU21D;51367;45.204;38.576;2023-05-10T07:01:13;9.83;88.02
64874;HTU21D;51367;45.204;38.576;2023-05-10T07:03:39;9.88;87.95
64874;HTU21D;51367;45.204;38.576;2023-05-10T07:06:06;9.92;87.93
64874;HTU21D;51367;45.204;38.576;2023-05-10T07:08:35;9.99;87.92
64874;HTU21D;51367;45.204;38.576;2023-05-10T07:11:06;10.08;87.86
64874;HTU21D;51367;45.204;38.576;2023-05-10T07:13:36;10.15;87.76
64874;HTU21D;51367;45.204;38.576;2023-05-10T07:16:02;10.22;87.58
64874;HTU21D;51367;45.204;38.576;2023-05-10T07:18:28;10.27;87.64
64874;HTU21D;51367;45.204;38.576;2023-05-10T07:20:54;10.35;87.49
64874;HTU21D;51367;45.204;38.576;2023-05-10T07:23:20;10.41;87.48
64874;HTU21D;51367;45.204;38.576;2023-05-10T07:25:47;10.49;87.38
64874;HTU21D;51367;45.204;38.576;2023-05-10T07:28:14;10.55;87.41
64874;HTU21D;51367;45.204;38.576;2023-05-10T07:30:40;10.60;87.34
64874;HTU21D;51367;45.204;38.576;2023-05-10T07:33:08;10.71;87.38
64874;HTU21D;51367;45.204;38.576;2023-05-10T07:35:34;10.84;87.22
64874;HTU21D;51367;45.204;38.576;2023-05-10T07:38:01;10.95;87.12
64874;HTU21D;51367;45.204;38.576;2023-05-10T07:40:27;10.98;86.66
64874;HTU21D;51367;45.204;38.576;2023-05-10T07:42:53;11.02;86.80
64874;HTU21D;51367;45.204;38.576;2023-05-10T07:45:19;11.10;86.84
64874;HTU21D;51367;45.204;38.576;2023-05-10T07:47:46;11.16;86.64
64874;HTU21D;51367;45.204;38.576;2023-05-10T07:50:11;11.19;86.69
64874;HTU21D;51367;45.204;38.576;2023-05-10T07:52:37;11.28;86.58
64874;HTU21D;51367;45.204;38.576;2023-05-10T07:55:03;11.31;86.39
64874;HTU21D;51367;45.204;38.576;2023-05-10T07:57:30;11.33;86.12
64874;HTU21D;51367;45.204;38.576;2023-05-10T07:59:56;11.34;86.07
64874;HTU21D;51367;45.204;38.576;2023-05-10T08:02:22;11.41;86.25
64874;HTU21D;51367;45.204;38.576;2023-05-10T08:04:48;11.51;85.87
64874;HTU21D;51367;45.204;38.576;2023-05-10T08:07:14;11.58;85.67
64874;HTU21D;51367;45.204;38.576;2023-05-10T08:09:39;11.72;86.06
64874;HTU21D;51367;45.204;38.576;2023-05-10T08:12:05;11.87;85.90
64874;HTU21D;51367;45.204;38.576;2023-05-10T08:14:31;12.07;85.45
64874;HTU21D;51367;45.204;38.576;2023-05-10T08:16:57;12.29;85.77
64874;HTU21D;51367;45.204;38.576;2023-05-10T08:19:23;12.49;85.63
64874;HTU21D;51367;45.204;38.576;2023-05-10T08:21:49;12.77;85.61
64874;HTU21D;51367;45.204;38.576;2023-05-10T08:24:15;13.10;85.03
64874;HTU21D;51367;45.204;38.576;2023-05-10T08:26:41;13.36;84.23
64874;HTU21D;51367;45.204;38.576;2023-05-10T08:29:07;13.49;83.00
64874;HTU21D;51367;45.204;38.576;2023-05-10T08:31:33;13.58;83.12
64874;HTU21D;51367;45.204;38.576;2023-05-10T08:33:59;13.75;83.13
64874;HTU21D;51367;45.204;38.576;2023-05-10T08:36:25;13.93;83.22
64874;HTU21D;51367;45.204;38.576;2023-05-10T08:38:52;14.20;83.10
64874;HTU21D;51367;45.204;38.576;2023-05-10T08:41:20;14.45;82.80
64874;HTU21D;51367;45.204;38.576;2023-05-10T08:43:46;14.58;81.23
64874;HTU21D;51367;45.204;38.576;2023-05-10T08:46:17;14.52;80.78
64874;HTU21D;51367;45.204;38.576;2023-05-10T08:48:44;14.33;80.83
64874;HTU21D;51367;45.204;38.576;2023-05-10T08:51:14;14.11;81.40
64874;HTU21D;51367;45.204;38.576;2023-05-10T08:53:40;13.98;82.10
64874;HTU21D;51367;45.204;38.576;2023-05-10T08:56:07;13.90;81.33
64874;HTU21D;51367;45.204;38.576;2023-05-10T08:58:33;13.69;81.11
64874;HTU21D;51367;45.204;38.576;2023-05-10T09:00:59;13.54;80.85
64874;HTU21D;51367;45.204;38.576;2023-05-10T09:03:26;13.47;81.75
64874;HTU21D;51367;45.204;38.576;2023-05-10T09:05:52;13.45;81.78
64874;HTU21D;51367;45.204;38.576;2023-05-10T09:08:18;13.43;82.00
64874;HTU21D;51367;45.204;38.576;2023-05-10T09:10:45;13.41;82.01
64874;HTU21D;51367;45.204;38.576;2023-05-10T09:13:15;13.47;82.09
64874;HTU21D;51367;45.204;38.576;2023-05-10T09:15:41;13.53;82.01
64874;HTU21D;51367;45.204;38.576;2023-05-10T09:18:07;13.59;81.01
64874;HTU21D;51367;45.204;38.576;2023-05-10T09:20:33;13.54;79.65
64874;HTU21D;51367;45.204;38.576;2023-05-10T09:22:59;13.47;80.61
64874;HTU21D;51367;45.204;38.576;2023-05-10T09:25:25;13.49;81.18
64874;HTU21D;51367;45.204;38.576;2023-05-10T09:27:51;13.54;81.20
64874;HTU21D;51367;45.204;38.576;2023-05-10T09:30:26;13.61;81.31
64874;HTU21D;51367;45.204;38.576;2023-05-10T09:32:54;13.71;81.27
64874;HTU21D;51367;45.204;38.576;2023-05-10T09:35:22;13.73;80.84
64874;HTU21D;51367;45.204;38.576;2023-05-10T09:37:50;13.77;81.10
64874;HTU21D;51367;45.204;38.576;2023-05-10T09:40:21;13.79;80.90
64874;HTU21D;51367;45.204;38.576;2023-05-10T09:45:17;13.92;80.78
64874;HTU21D;51367;45.204;38.576;2023-05-10T09:47:45;13.90;80.79
64874;HTU21D;51367;45.204;38.576;2023-05-10T09:50:11;13.76;80.33
64874;HTU21D;51367;45.204;38.576;2023-05-10T09:52:55;13.55;79.95
64874;HTU21D;51367;45.204;38.576;2023-05-10T09:55:24;13.34;79.80
64874;HTU21D;51367;45.204;38.576;2023-05-10T09:57:59;13.14;79.75
64874;HTU21D;51367;45.204;38.576;2023-05-10T10:00:26;12.90;79.35
64874;HTU21D;51367;45.204;38.576;2023-05-10T10:02:57;12.75;80.05
64874;HTU21D;51367;45.204;38.576;2023-05-10T10:05:30;12.66;80.27
64874;HTU21D;51367;45.204;38.576;2023-05-10T10:08:01;12.61;80.29
64874;HTU21D;51367;45.204;38.576;2023-05-10T10:10:28;12.56;79.77
64874;HTU21D;51367;45.204;38.576;2023-05-10T10:12:54;12.56;80.01
64874;HTU21D;51367;45.204;38.576;2023-05-10T10:15:21;12.55;78.99
64874;HTU21D;51367;45.204;38.576;2023-05-10T10:17:48;12.53;79.01
64874;HTU21D;51367;45.204;38.576;2023-05-10T10:20:15;12.53;77.89
64874;HTU21D;51367;45.204;38.576;2023-05-10T10:22:41;12.56;78.98
64874;HTU21D;51367;45.204;38.576;2023-05-10T10:25:11;12.58;79.32
64874;HTU21D;51367;45.204;38.576;2023-05-10T10:35:45;12.70;79.26
64874;HTU21D;51367;45.204;38.576;2023-05-10T10:38:12;12.81;79.45
64874;HTU21D;51367;45.204;38.576;2023-05-10T10:40:39;12.95;79.17
64874;HTU21D;51367;45.204;38.576;2023-05-10T10:43:25;13.10;79.17
64874;HTU21D;51367;45.204;38.576;2023-05-10T10:46:11;13.23;79.05
64874;HTU21D;51367;45.204;38.576;2023-05-10T10:48:39;13.36;79.00
64874;HTU21D;51367;45.204;38.576;2023-05-10T10:51:05;13.46;78.76
64874;HTU21D;51367;45.204;38.576;2023-05-10T10:53:32;13.54;78.72
64874;HTU21D;51367;45.204;38.576;2023-05-10T10:56:09;13.64;78.74
64874;HTU21D;51367;45.204;38.576;2023-05-10T10:58:39;13.74;78.63
64874;HTU21D;51367;45.204;38.576;2023-05-10T11:01:15;13.78;78.41
64874;HTU21D;51367;45.204;38.576;2023-05-10T11:06:40;13.93;78.11
64874;HTU21D;51367;45.204;38.576;2023-05-10T11:09:09;13.92;77.06
64874;HTU21D;51367;45.204;38.576;2023-05-10T11:11:36;13.86;75.76
64874;HTU21D;51367;45.204;38.576;2023-05-10T11:14:09;13.77;76.08
64874;HTU21D;51367;45.204;38.576;2023-05-10T11:16:43;13.65;76.33
64874;HTU21D;51367;45.204;38.576;2023-05-10T11:19:13;13.60;75.85
64874;HTU21D;51367;45.204;38.576;2023-05-10T11:21:50;13.58;76.56
64874;HTU21D;51367;45.204;38.576;2023-05-10T11:24:22;13.58;76.18
64874;HTU21D;51367;45.204;38.576;2023-05-10T11:26:52;13.63;76.89
64874;HTU21D;51367;45.204;38.576;2023-05-10T11:29:19;13.73;77.03
64874;HTU21D;51367;45.204;38.576;2023-05-10T11:31:46;13.83;76.89
64874;HTU21D;51367;45.204;38.576;2023-05-10T11:34:30;13.95;76.72
64874;HTU21D;51367;45.204;38.576;2023-05-10T11:36:57;13.95;75.47
64874;HTU21D;51367;45.204;38.576;2023-05-10T11:39:27;13.91;75.79
64874;HTU21D;51367;45.204;38.576;2023-05-10T11:41:54;13.88;75.27
64874;HTU21D;51367;45.204;38.576;2023-05-10T11:44:20;13.88;75.31
64874;HTU21D;51367;45.204;38.576;2023-05-10T11:46:46;13.86;73.89
64874;HTU21D;51367;45.204;38.576;2023-05-10T11:49:12;13.81;73.95
64874;HTU21D;51367;45.204;38.576;2023-05-10T11:51:38;13.79;74.08
64874;HTU21D;51367;45.204;38.576;2023-05-10T11:54:11;13.69;73.51
64874;HTU21D;51367;45.204;38.576;2023-05-10T11:56:41;13.64;73.17
64874;HTU21D;51367;45.204;38.576;2023-05-10T11:59:07;13.60;73.02
64874;HTU21D;51367;45.204;38.576;2023-05-10T12:01:33;13.62;72.51
64874;HTU21D;51367;45.204;38.576;2023-05-10T12:04:00;13.67;73.53
64874;HTU21D;51367;45.204;38.576;2023-05-10T12:06:28;13.74;74.06
64874;HTU21D;51367;45.204;38.576;2023-05-10T12:08:55;13.84;74.39
64874;HTU21D;51367;45.204;38.576;2023-05-10T12:11:25;13.96;74.52
64874;HTU21D;51367;45.204;38.576;2023-05-10T12:13:51;14.05;73.93
64874;HTU21D;51367;45.204;38.576;2023-05-10T12:16:18;14.07;73.94
64874;HTU21D;51367;45.204;38.576;2023-05-10T12:18:47;14.13;74.17
64874;HTU21D;51367;45.204;38.576;2023-05-10T12:21:14;14.17;73.93
64874;HTU21D;51367;45.204;38.576;2023-05-10T12:23:41;14.13;73.55
64874;HTU21D;51367;45.204;38.576;2023-05-10T12:26:10;14.15;74.10
64874;HTU21D;51367;45.204;38.576;2023-05-10T12:28:37;14.25;74.36
64874;HTU21D;51367;45.204;38.576;2023-05-10T12:31:03;14.33;73.34
64874;HTU21D;51367;45.204;38.576;2023-05-10T12:33:40;14.28;72.04
64874;HTU21D;51367;45.204;38.576;2023-05-10T12:36:10;14.27;73.09
64874;HTU21D;51367;45.204;38.576;2023-05-10T12:38:41;14.35;73.50
64874;HTU21D;51367;45.204;38.576;2023-05-10T12:41:13;14.45;73.56
64874;HTU21D;51367;45.204;38.576;2023-05-10T12:47:25;14.52;72.38
64874;HTU21D;51367;45.204;38.576;2023-05-10T12:49:51;14.56;72.38
64874;HTU21D;51367;45.204;38.576;2023-05-10T12:52:17;14.55;72.55
64874;HTU21D;51367;45.204;38.576;2023-05-10T12:54:43;14.58;72.51
64874;HTU21D;51367;45.204;38.576;2023-05-10T12:57:09;14.58;72.44
64874;HTU21D;51367;45.204;38.576;2023-05-10T12:59:35;14.53;71.59
64874;HTU21D;51367;45.204;38.576;2023-05-10T13:02:01;14.44;72.06
64874;HTU21D;51367;45.204;38.576;2023-05-10T13:04:27;14.40;72.45
64874;HTU21D;51367;45.204;38.576;2023-05-10T13:06:54;14.39;72.83
64874;HTU21D;51367;45.204;38.576;2023-05-10T13:09:27;14.47;72.96
64874;HTU21D;51367;45.204;38.576;2023-05-10T13:11:55;14.52;72.56
64874;HTU21D;51367;45.204;38.576;2023-05-10T13:14:21;14.53;72.85
64874;HTU21D;51367;45.204;38.576;2023-05-10T13:16:47;14.49;70.72
64874;HTU21D;51367;45.204;38.576;2023-05-10T13:19:14;14.32;70.62
64874;HTU21D;51367;45.204;38.576;2023-05-10T13:21:40;14.13;70.48
64874;HTU21D;51367;45.204;38.576;2023-05-10T13:24:10;14.06;71.73
64874;HTU21D;51367;45.204;38.576;2023-05-10T13:26:40;14.10;71.67
64874;HTU21D;51367;45.204;38.576;2023-05-10T13:29:06;14.21;71.50
64874;HTU21D;51367;45.204;38.576;2023-05-10T13:31:33;14.29;71.50
64874;HTU21D;51367;45.204;38.576;2023-05-10T13:33:59;14.49;71.53
64874;HTU21D;51367;45.204;38.576;2023-05-10T13:36:25;14.71;70.93
64874;HTU21D;51367;45.204;38.576;2023-05-10T13:38:51;14.84;69.71
64874;HTU21D;51367;45.204;38.576;2023-05-10T13:41:17;14.91;69.83
64874;HTU21D;51367;45.204;38.576;2023-05-10T13:43:43;14.98;69.84
64874;HTU21D;51367;45.204;38.576;2023-05-10T13:46:09;15.03;70.17
64874;HTU21D;51367;45.204;38.576;2023-05-10T13:48:35;15.19;70.64
64874;HTU21D;51367;45.204;38.576;2023-05-10T13:51:02;15.24;69.44
64874;HTU21D;51367;45.204;38.576;2023-05-10T13:53:28;15.22;70.18
64874;HTU21D;51367;45.204;38.576;2023-05-10T13:55:54;15.25;69.39
64874;HTU21D;51367;45.204;38.576;2023-05-10T13:58:20;15.24;69.37
64874;HTU21D;51367;45.204;38.576;2023-05-10T14:00:46;15.16;68.04
64874;HTU21D;51367;45.204;38.576;2023-05-10T14:03:12;15.04;68.81
64874;HTU21D;51367;45.204;38.576;2023-05-10T14:05:38;15.09;69.78
64874;HTU21D;51367;45.204;38.576;2023-05-10T14:08:04;15.14;69.30
64874;HTU21D;51367;45.204;38.576;2023-05-10T14:10:30;15.17;68.91
64874;HTU21D;51367;45.204;38.576;2023-05-10T14:12:56;15.18;69.42
64874;HTU21D;51367;45.204;38.576;2023-05-10T14:15:22;15.21;69.79
64874;HTU21D;51367;45.204;38.576;2023-05-10T14:17:48;15.21;69.09
64874;HTU21D;51367;45.204;38.576;2023-05-10T14:20:14;15.11;66.91
64874;HTU21D;51367;45.204;38.576;2023-05-10T14:22:40;14.96;68.41
64874;HTU21D;51367;45.204;38.576;2023-05-10T14:25:06;14.88;69.01
64874;HTU21D;51367;45.204;38.576;2023-05-10T14:27:32;14.85;67.84
64874;HTU21D;51367;45.204;38.576;2023-05-10T14:29:58;14.68;68.09
64874;HTU21D;51367;45.204;38.576;2023-05-10T14:32:23;14.48;68.75
64874;HTU21D;51367;45.204;38.576;2023-05-10T14:34:50;14.29;68.58
64874;HTU21D;51367;45.204;38.576;2023-05-10T14:37:16;14.17;68.22
64874;HTU21D;51367;45.204;38.576;2023-05-10T14:39:41;14.07;69.01
64874;HTU21D;51367;45.204;38.576;2023-05-10T14:42:08;14.06;69.75
64874;HTU21D;51367;45.204;38.576;2023-05-10T14:44:34;14.04;69.18
64874;HTU21D;51367;45.204;38.576;2023-05-10T14:47:00;13.92;69.76
64874;HTU21D;51367;45.204;38.576;2023-05-10T14:49:26;13.86;70.15
64874;HTU21D;51367;45.204;38.576;2023-05-10T14:51:52;13.83;69.24
64874;HTU21D;51367;45.204;38.576;2023-05-10T14:54:18;13.80;69.78
64874;HTU21D;51367;45.204;38.576;2023-05-10T14:56:44;13.78;69.98
64874;HTU21D;51367;45.204;38.576;2023-05-10T14:59:10;13.74;69.56
64874;HTU21D;51367;45.204;38.576;2023-05-10T15:01:36;13.68;70.08
64874;HTU21D;51367;45.204;38.576;2023-05-10T15:04:03;13.58;69.33
64874;HTU21D;51367;45.204;38.576;2023-05-10T15:06:34;13.45;70.10
64874;HTU21D;51367;45.204;38.576;2023-05-10T15:09:01;13.39;69.99
64874;HTU21D;51367;45.204;38.576;2023-05-10T15:11:27;13.36;70.32
64874;HTU21D;51367;45.204;38.576;2023-05-10T15:13:53;13.27;69.71
64874;HTU21D;51367;45.204;38.576;2023-05-10T15:16:19;13.14;69.65
64874;HTU21D;51367;45.204;38.576;2023-05-10T15:18:45;13.04;70.10
64874;HTU21D;51367;45.204;38.576;2023-05-10T15:21:11;12.95;70.30
64874;HTU21D;51367;45.204;38.576;2023-05-10T15:23:37;12.91;70.21
64874;HTU21D;51367;45.204;38.576;2023-05-10T15:26:03;12.90;70.65
64874;HTU21D;51367;45.204;38.576;2023-05-10T15:28:29;12.88;70.70
64874;HTU21D;51367;45.204;38.576;2023-05-10T15:30:55;12.90;70.71
64874;HTU21D;51367;45.204;38.576;2023-05-10T15:33:22;12.85;70.29
64874;HTU21D;51367;45.204;38.576;2023-05-10T15:35:48;12.81;70.48
64874;HTU21D;51367;45.204;38.576;2023-05-10T15:38:14;12.75;69.98
64874;HTU21D;51367;45.204;38.576;2023-05-10T15:40:40;12.69;70.28
64874;HTU21D;51367;45.204;38.576;2023-05-10T15:43:06;12.64;70.71
64874;HTU21D;51367;45.204;38.576;2023-05-10T15:45:32;12.60;70.77
64874;HTU21D;51367;45.204;38.576;2023-05-10T15:47:58;12.52;70.97
64874;HTU21D;51367;45.204;38.576;2023-05-10T15:50:25;12.45;71.06
64874;HTU21D;51367;45.204;38.576;2023-05-10T15:52:51;12.35;71.17